Terminal Aerodrome Forecast
Issued by NWS

Home | Current Version | Previous Version | Text Only | Print | Product List | Glossary On
Versions: 1 2 3 4 5 6 7 8 9 10 11 12 13
000
FTUS46 KMTR 301500 AAA
TAFSJC
TAF AMD
KSJC 301521Z 3015/3112 30003KT P6SM FEW009
      TEMPO 3015/3017 FEW004 BKN009
     FM301700 29005KT P6SM FEW009
     FM302100 30010KT P6SM FEW250
     FM310400 26005KT P6SM SKC
     FM311000 13004KT P6SM FEW010=

USA.gov is the U.S. government's official web portal to all federal, state and local government web resources and services.